Time;durP1;ratioP1;P1;durP2;ratioP2;P2;SDS_P1;SDS_P2;PMS_P1;PMS_P2;Temp;Humidity;BMP_temperature;BMP_pressure;BME280_temperature;BME280_humidity;BME280_pressure;Samples;Min_cycle;Max_cycle;Signal;HPM_P1;HPM_P2
2021/04/10 00:01:39;;;;;;;0.23;0.23;;;11.30;99.90;;;;;;5033486;28;20205;-83
2021/04/10 00:04:05;;;;;;;3.20;0.20;;;11.30;99.90;;;;;;5033902;28;20182;-83
2021/04/10 00:06:31;;;;;;;0.17;0.17;;;11.40;99.90;;;;;;5033104;28;20194;-83
2021/04/10 00:08:57;;;;;;;0.47;0.40;;;11.10;99.90;;;;;;5033951;28;20277;-83
2021/04/10 00:11:22;;;;;;;0.43;0.43;;;10.90;99.90;;;;;;5034280;28;20187;-83
2021/04/10 00:13:48;;;;;;;0.40;0.40;;;10.80;99.90;;;;;;5034929;28;20553;-82
2021/04/10 00:16:14;;;;;;;2.23;0.40;;;10.90;99.90;;;;;;5030901;28;20212;-84
2021/04/10 00:18:40;;;;;;;0.50;0.50;;;10.60;99.90;;;;;;5034252;28;20202;-84
2021/04/10 00:21:05;;;;;;;0.60;0.50;;;10.50;99.90;;;;;;5022462;28;20186;-83
2021/04/10 00:23:31;;;;;;;0.33;0.30;;;10.60;99.90;;;;;;5029053;28;20391;-84
2021/04/10 00:25:57;;;;;;;0.30;0.30;;;10.80;99.90;;;;;;5032257;28;20244;-84
2021/04/10 00:28:22;;;;;;;0.53;0.53;;;11.00;99.90;;;;;;5034675;28;20233;-83
2021/04/10 00:30:48;;;;;;;0.40;0.40;;;10.90;99.90;;;;;;5034515;28;20194;-83
2021/04/10 00:33:13;;;;;;;1.20;0.27;;;10.80;99.90;;;;;;5025770;28;20190;-83
2021/04/10 00:35:39;;;;;;;2.63;0.70;;;10.50;99.90;;;;;;5033144;28;20225;-84
2021/04/10 00:38:04;;;;;;;0.20;0.20;;;10.50;99.90;;;;;;5033719;28;20198;-83
2021/04/10 00:40:30;;;;;;;0.47;0.30;;;10.50;99.90;;;;;;5034562;28;20179;-84
2021/04/10 00:42:56;;;;;;;0.50;0.40;;;10.70;99.90;;;;;;5033344;28;20217;-83
2021/04/10 00:45:21;;;;;;;0.20;0.20;;;10.90;99.90;;;;;;5033051;28;20185;-83
2021/04/10 00:47:47;;;;;;;0.10;0.10;;;10.80;99.90;;;;;;5033612;28;20214;-84
2021/04/10 00:50:13;;;;;;;0.07;0.07;;;11.00;99.90;;;;;;5034835;28;20615;-83
2021/04/10 00:52:40;;;;;;;0.17;0.17;;;11.10;99.90;;;;;;5020026;28;20195;-83
2021/04/10 00:55:07;;;;;;;0.10;0.10;;;11.00;99.90;;;;;;5029966;28;20300;-83
2021/04/10 00:57:33;;;;;;;0.20;0.20;;;11.00;99.90;;;;;;5027546;28;20234;-83
2021/04/10 00:59:59;;;;;;;1.50;0.63;;;10.60;99.90;;;;;;5033011;28;20182;-83
2021/04/10 01:02:26;;;;;;;0.33;0.33;;;10.20;99.90;;;;;;5032559;28;20308;-83
2021/04/10 01:04:52;;;;;;;1.53;0.47;;;10.10;99.90;;;;;;5032139;28;20182;-85
2021/04/10 01:07:18;;;;;;;0.13;0.13;;;10.10;99.90;;;;;;5027607;28;20202;-83
2021/04/10 01:09:47;;;;;;;0.50;0.50;;;10.20;99.90;;;;;;5032629;28;20658;-83
2021/04/10 01:12:31;;;;;;;0.30;0.13;;;10.00;99.90;;;;;;5032072;28;20556;-83
2021/04/10 01:15:08;;;;;;;0.57;0.57;;;10.00;99.90;;;;;;5033708;28;20893;-83
2021/04/10 01:17:55;;;;;;;0.30;0.30;;;10.20;99.90;;;;;;5032420;28;20201;-84
2021/04/10 01:20:49;;;;;;;0.00;0.00;;;10.40;99.90;;;;;;5028828;28;20600;-83
2021/04/10 01:23:52;;;;;;;0.30;0.30;;;10.50;99.90;;;;;;5022897;28;20249;-84
2021/04/10 01:26:39;;;;;;;0.40;0.40;;;10.60;99.90;;;;;;5044624;28;20213;-83
2021/04/10 01:29:08;;;;;;;0.20;0.20;;;10.70;99.90;;;;;;5032753;28;20563;-83
2021/04/10 01:31:38;;;;;;;0.10;0.10;;;10.30;99.90;;;;;;5031856;28;20275;-84
2021/04/10 01:34:09;;;;;;;0.10;0.10;;;10.40;99.90;;;;;;5031326;28;20178;-83
2021/04/10 01:36:39;;;;;;;0.20;0.20;;;10.50;99.90;;;;;;5033395;28;20293;-83
2021/04/10 01:39:09;;;;;;;3.70;0.30;;;10.60;99.90;;;;;;5032384;28;20209;-85
2021/04/10 01:41:36;;;;;;;0.10;0.10;;;10.70;99.90;;;;;;5028629;28;20189;-84
2021/04/10 01:44:05;;;;;;;0.77;0.20;;;10.60;99.90;;;;;;5031843;28;20184;-83
2021/04/10 01:46:31;;;;;;;2.83;0.90;;;10.60;99.90;;;;;;5031156;28;20237;-83
2021/04/10 01:48:59;;;;;;;0.20;0.20;;;10.50;99.90;;;;;;5032366;28;20280;-83
2021/04/10 01:51:26;;;;;;;0.20;0.20;;;10.30;99.90;;;;;;5032946;28;20620;-84
2021/04/10 01:53:52;;;;;;;0.40;0.40;;;10.10;99.90;;;;;;5031957;28;20213;-83
2021/04/10 01:56:19;;;;;;;0.10;0.10;;;10.30;99.90;;;;;;5032978;28;20209;-83
2021/04/10 01:58:45;;;;;;;0.10;0.10;;;10.10;99.90;;;;;;5033150;28;20671;-83
2021/04/10 02:01:13;;;;;;;0.20;0.20;;;10.10;99.90;;;;;;5031632;28;20646;-83
2021/04/10 02:03:45;;;;;;;0.10;0.10;;;10.00;99.90;;;;;;5025741;28;20191;-84
2021/04/10 02:06:12;;;;;;;0.40;0.13;;;9.90;99.90;;;;;;5018632;22;20235;-86
2021/04/10 02:08:42;;;;;;;0.40;0.40;;;9.80;99.90;;;;;;4975916;28;20601;-83
2021/04/10 02:11:09;;;;;;;0.80;0.43;;;10.00;99.90;;;;;;4980572;28;20237;-83
2021/04/10 02:13:42;;;;;;;0.17;0.17;;;10.00;99.90;;;;;;4975798;28;20641;-83
2021/04/10 02:16:07;;;;;;;0.63;0.63;;;9.90;99.90;;;;;;4975450;28;20318;-84
2021/04/10 02:18:37;;;;;;;0.77;0.73;;;9.90;99.90;;;;;;4993538;28;20259;-83
2021/04/10 02:21:08;;;;;;;0.23;0.20;;;9.90;99.90;;;;;;4993196;28;20249;-83
2021/04/10 02:23:43;;;;;;;0.20;0.20;;;10.00;99.90;;;;;;4977006;28;20234;-83
2021/04/10 02:26:09;;;;;;;1.27;1.03;;;9.90;99.90;;;;;;4983694;28;20225;-83
2021/04/10 02:28:35;;;;;;;0.10;0.10;;;9.90;99.90;;;;;;4977175;28;20193;-83
2021/04/10 02:31:03;;;;;;;1.13;1.13;;;9.90;99.90;;;;;;4975954;28;20179;-83
2021/04/10 02:33:38;;;;;;;0.10;0.10;;;10.00;99.90;;;;;;4992742;28;20176;-83
2021/04/10 02:36:04;;;;;;;0.10;0.10;;;10.20;99.90;;;;;;4975488;28;20202;-83
2021/04/10 02:38:32;;;;;;;0.50;0.50;;;10.40;99.90;;;;;;4966498;28;20771;-83
2021/04/10 02:41:15;;;;;;;0.20;0.20;;;10.50;99.90;;;;;;4992816;28;20183;-83
2021/04/10 02:43:45;;;;;;;0.10;0.10;;;10.70;99.90;;;;;;4975872;28;20218;-83
2021/04/10 02:46:14;;;;;;;0.10;0.10;;;10.40;99.90;;;;;;4972589;28;20204;-83
2021/04/10 02:49:18;;;;;;;0.20;0.20;;;10.50;99.90;;;;;;4969247;28;20180;-83
2021/04/10 02:51:54;;;;;;;0.10;0.10;;;10.60;99.90;;;;;;4990450;28;20195;-83
2021/04/10 02:54:22;;;;;;;0.20;0.20;;;10.80;99.90;;;;;;4992911;28;20187;-83
2021/04/10 02:57:01;;;;;;;0.23;0.23;;;10.90;99.90;;;;;;4969194;28;20211;-83
2021/04/10 02:59:28;;;;;;;0.10;0.10;;;10.90;99.90;;;;;;4971765;28;20249;-82
2021/04/10 03:01:57;;;;;;;0.10;0.10;;;10.90;99.90;;;;;;4972380;28;20246;-83
2021/04/10 03:04:23;;;;;;;0.67;0.20;;;10.90;99.90;;;;;;4992999;28;20191;-83
2021/04/10 03:06:49;;;;;;;0.30;0.30;;;11.00;99.90;;;;;;4975238;28;20186;-83
2021/04/10 03:09:15;;;;;;;0.10;0.10;;;11.00;99.90;;;;;;4975591;28;20584;-85
2021/04/10 03:11:42;;;;;;;0.20;0.20;;;11.00;99.90;;;;;;4989016;28;20188;-84
2021/04/10 03:14:09;;;;;;;0.23;0.23;;;11.00;99.90;;;;;;4992931;28;20184;-84
2021/04/10 03:16:35;;;;;;;0.00;0.00;;;11.00;99.90;;;;;;4975294;28;20203;-84
2021/04/10 03:19:03;;;;;;;0.20;0.20;;;11.10;99.90;;;;;;4992919;28;20184;-83
2021/04/10 03:21:29;;;;;;;0.10;0.10;;;11.00;99.90;;;;;;4975030;28;20229;-83
2021/04/10 03:23:54;;;;;;;0.30;0.30;;;11.10;99.90;;;;;;4975469;28;20190;-83
2021/04/10 03:26:20;;;;;;;0.77;0.33;;;10.70;99.90;;;;;;4992709;28;20243;-83
2021/04/10 03:28:48;;;;;;;0.30;0.30;;;10.50;99.90;;;;;;4994091;28;20191;-83
2021/04/10 03:31:14;;;;;;;0.20;0.20;;;10.60;99.90;;;;;;4978564;28;20262;-84
2021/04/10 03:33:40;;;;;;;0.93;0.93;;;10.40;99.90;;;;;;4979078;28;20599;-84
2021/04/10 03:36:07;;;;;;;0.30;0.30;;;10.40;99.90;;;;;;4975299;28;20246;-83
2021/04/10 03:38:33;;;;;;;0.63;0.30;;;10.50;99.90;;;;;;4975865;28;20234;-83
2021/04/10 03:41:00;;;;;;;0.47;0.30;;;10.60;99.90;;;;;;4992848;28;20204;-83
2021/04/10 03:43:25;;;;;;;1.30;0.53;;;10.60;99.90;;;;;;4993385;28;20202;-83
2021/04/10 03:45:51;;;;;;;0.30;0.30;;;10.60;99.90;;;;;;4976737;28;20707;-83
2021/04/10 03:48:17;;;;;;;0.43;0.43;;;10.70;99.90;;;;;;4978716;28;20195;-83
2021/04/10 03:50:43;;;;;;;0.40;0.40;;;10.80;99.90;;;;;;4971358;28;20565;-83
2021/04/10 03:53:09;;;;;;;0.10;0.10;;;10.80;99.90;;;;;;4978217;28;20184;-83
2021/04/10 03:55:34;;;;;;;0.30;0.10;;;10.90;99.90;;;;;;4968060;28;20611;-84
2021/04/10 03:58:02;;;;;;;0.20;0.20;;;10.90;99.90;;;;;;4972796;28;20645;-84
2021/04/10 04:00:28;;;;;;;0.13;0.13;;;10.90;99.90;;;;;;4959608;28;20239;-83
2021/04/10 04:02:54;;;;;;;0.40;0.40;;;11.00;99.90;;;;;;4996826;28;20179;-82
2021/04/10 04:05:20;;;;;;;0.50;0.50;;;11.00;99.90;;;;;;4980219;28;20305;-84
2021/04/10 04:07:45;;;;;;;0.30;0.30;;;11.10;99.90;;;;;;4978654;28;20215;-83
2021/04/10 04:10:11;;;;;;;0.10;0.10;;;11.10;99.90;;;;;;4987566;28;20278;-84
2021/04/10 04:12:37;;;;;;;0.27;0.27;;;11.10;99.90;;;;;;4996131;28;20191;-83
2021/04/10 04:15:04;;;;;;;0.20;0.20;;;11.10;99.90;;;;;;4992392;28;20204;-83
2021/04/10 04:17:30;;;;;;;0.27;0.27;;;11.10;99.90;;;;;;4975475;28;20699;-83
2021/04/10 04:19:55;;;;;;;0.33;0.10;;;11.10;99.90;;;;;;4995662;28;20180;-84
2021/04/10 04:22:21;;;;;;;0.20;0.20;;;11.10;99.90;;;;;;4995329;28;20262;-83
2021/04/10 04:24:47;;;;;;;0.20;0.20;;;11.00;99.90;;;;;;4995538;28;20238;-82
2021/04/10 04:27:12;;;;;;;0.20;0.20;;;10.90;99.90;;;;;;4978391;28;20243;-83
2021/04/10 04:29:38;;;;;;;0.17;0.13;;;10.90;99.90;;;;;;4995761;28;20214;-83
2021/04/10 04:32:03;;;;;;;0.20;0.20;;;10.90;99.90;;;;;;4977906;28;20719;-83
2021/04/10 04:34:29;;;;;;;0.07;0.07;;;11.00;99.90;;;;;;4995939;28;20207;-82
2021/04/10 04:36:55;;;;;;;0.10;0.10;;;11.00;99.90;;;;;;4992002;28;20259;-83
2021/04/10 04:39:20;;;;;;;0.30;0.20;;;11.10;99.90;;;;;;4998776;28;20187;-83
2021/04/10 04:41:46;;;;;;;0.83;0.83;;;11.00;99.90;;;;;;4994689;28;20187;-83
2021/04/10 04:44:11;;;;;;;0.43;0.43;;;11.10;99.90;;;;;;4977910;28;20227;-83
2021/04/10 04:46:37;;;;;;;0.30;0.20;;;11.00;99.90;;;;;;4977772;28;20198;-83
2021/04/10 04:49:03;;;;;;;0.10;0.10;;;11.00;99.90;;;;;;4995075;28;20187;-84
2021/04/10 04:51:29;;;;;;;0.23;0.23;;;11.10;99.90;;;;;;4974887;28;20184;-84
2021/04/10 04:53:54;;;;;;;0.10;0.10;;;11.10;99.90;;;;;;4994943;28;20188;-83
2021/04/10 04:56:21;;;;;;;0.10;0.10;;;11.10;99.90;;;;;;4973161;28;20226;-83
2021/04/10 04:58:46;;;;;;;0.13;0.13;;;11.10;99.90;;;;;;4995177;28;20191;-83
2021/04/10 05:01:12;;;;;;;0.60;0.60;;;11.10;99.90;;;;;;4995860;28;21603;-83
2021/04/10 05:03:37;;;;;;;0.10;0.10;;;11.10;99.90;;;;;;4977895;28;20271;-86
2021/04/10 05:06:03;;;;;;;0.53;0.40;;;11.00;99.90;;;;;;4979300;28;20274;-87
2021/04/10 05:08:28;;;;;;;0.40;0.40;;;11.00;99.90;;;;;;4977319;28;20195;-86
2021/04/10 05:10:54;;;;;;;0.30;0.30;;;11.00;99.90;;;;;;4979373;28;20235;-86
2021/04/10 05:13:20;;;;;;;0.47;0.47;;;11.00;99.90;;;;;;4994278;28;20207;-85
2021/04/10 05:15:45;;;;;;;0.43;0.30;;;11.00;99.90;;;;;;4992298;28;20215;-84
2021/04/10 05:18:11;;;;;;;0.63;0.30;;;11.00;99.90;;;;;;4967373;28;20567;-84
2021/04/10 05:20:37;;;;;;;0.27;0.27;;;11.00;99.90;;;;;;4968270;28;20215;-83
2021/04/10 05:23:02;;;;;;;0.20;0.20;;;10.70;99.90;;;;;;4988880;28;20214;-83
2021/04/10 05:25:28;;;;;;;0.20;0.20;;;10.40;99.90;;;;;;4976959;28;20295;-83
2021/04/10 05:27:54;;;;;;;0.67;0.23;;;10.40;99.90;;;;;;4968374;28;20203;-86
2021/04/10 05:30:20;;;;;;;0.30;0.30;;;10.60;99.90;;;;;;4990541;28;20218;-87
2021/04/10 05:32:46;;;;;;;0.93;0.30;;;10.70;99.90;;;;;;4976248;28;20188;-87
2021/04/10 05:35:12;;;;;;;0.20;0.20;;;10.80;99.90;;;;;;4994877;28;20219;-82
2021/04/10 05:37:38;;;;;;;0.07;0.07;;;10.90;99.90;;;;;;4994093;28;20190;-82
2021/04/10 05:40:05;;;;;;;0.10;0.10;;;11.00;99.90;;;;;;4975324;28;20188;-83
2021/04/10 05:42:32;;;;;;;0.20;0.20;;;11.10;99.90;;;;;;4975140;28;20262;-84
2021/04/10 05:44:57;;;;;;;0.20;0.20;;;11.10;99.90;;;;;;4993864;28;20219;-84
2021/04/10 05:47:24;;;;;;;0.20;0.20;;;11.20;99.90;;;;;;4992054;28;20210;-83
2021/04/10 05:49:50;;;;;;;0.30;0.30;;;11.10;99.90;;;;;;4993636;28;20187;-84
2021/04/10 05:52:15;;;;;;;0.20;0.20;;;11.20;99.90;;;;;;4969430;28;20214;-84
2021/04/10 05:54:41;;;;;;;0.13;0.13;;;11.20;99.90;;;;;;4976331;28;20242;-83
2021/04/10 05:57:07;;;;;;;0.47;0.33;;;11.20;99.90;;;;;;4976899;28;20207;-83
2021/04/10 05:59:32;;;;;;;0.10;0.10;;;11.20;99.90;;;;;;4976458;28;20187;-84
2021/04/10 06:01:58;;;;;;;0.20;0.20;;;11.30;99.90;;;;;;4993542;28;20279;-84
2021/04/10 06:04:24;;;;;;;0.20;0.20;;;11.20;99.90;;;;;;4975665;28;20191;-84
2021/04/10 06:06:49;;;;;;;0.30;0.30;;;11.30;99.90;;;;;;4993895;28;20279;-84
2021/04/10 06:09:15;;;;;;;1.23;0.80;;;11.30;99.90;;;;;;4979324;28;20183;-84
2021/04/10 06:11:40;;;;;;;0.20;0.20;;;11.30;99.90;;;;;;4979164;28;20199;-83
2021/04/10 06:14:06;;;;;;;2.10;0.37;;;11.40;99.90;;;;;;4975560;28;21073;-84
2021/04/10 06:16:32;;;;;;;0.20;0.20;;;11.40;99.90;;;;;;4972819;28;20223;-83
2021/04/10 06:19:16;;;;;;;0.20;0.20;;;11.40;99.90;;;;;;4976359;28;20198;-84
2021/04/10 06:21:42;;;;;;;0.27;0.20;;;11.50;99.90;;;;;;4969647;28;20194;-84
2021/04/10 06:24:09;;;;;;;0.30;0.10;;;11.50;99.90;;;;;;4990374;28;20591;-84
2021/04/10 06:26:34;;;;;;;0.77;0.50;;;11.60;99.90;;;;;;4973109;28;20276;-84
2021/04/10 06:29:00;;;;;;;0.40;0.40;;;11.60;99.90;;;;;;4975862;28;20672;-83
2021/04/10 06:31:25;;;;;;;1.93;0.80;;;11.60;99.90;;;;;;4984466;28;20262;-85
2021/04/10 06:33:51;;;;;;;0.50;0.50;;;11.70;99.90;;;;;;4993548;28;20194;-82
2021/04/10 06:36:17;;;;;;;0.13;0.13;;;11.70;99.90;;;;;;4975599;28;20565;-83
2021/04/10 06:38:42;;;;;;;0.30;0.30;;;11.70;99.90;;;;;;4975698;28;20191;-83
2021/04/10 06:41:12;;;;;;;1.83;0.33;;;11.70;99.90;;;;;;4992879;28;20209;-84
2021/04/10 06:43:46;;;;;;;0.50;0.47;;;11.80;99.90;;;;;;4975848;28;20191;-84
2021/04/10 06:46:12;;;;;;;0.07;0.07;;;11.80;99.90;;;;;;4993004;28;20235;-85
2021/04/10 06:48:39;;;;;;;0.67;0.67;;;12.00;99.90;;;;;;4975568;28;20261;-83
2021/04/10 06:51:06;;;;;;;0.17;0.17;;;12.00;99.90;;;;;;4992844;28;20188;-83
2021/04/10 06:53:45;;;;;;;0.20;0.20;;;12.10;99.90;;;;;;4975861;28;20190;-83
2021/04/10 06:56:17;;;;;;;0.20;0.20;;;12.20;99.90;;;;;;4992898;28;20270;-83
2021/04/10 06:58:55;;;;;;;0.93;0.60;;;12.20;99.90;;;;;;4975585;28;20189;-84
2021/04/10 07:01:21;;;;;;;0.10;0.10;;;12.20;99.90;;;;;;4989466;28;20191;-83
2021/04/10 07:03:50;;;;;;;0.30;0.30;;;12.20;99.90;;;;;;4978589;28;20200;-84
2021/04/10 07:06:16;;;;;;;0.30;0.30;;;12.20;99.90;;;;;;4976395;28;20254;-83
2021/04/10 07:08:42;;;;;;;0.77;0.50;;;12.30;99.90;;;;;;4989750;28;20192;-82
2021/04/10 07:11:08;;;;;;;0.33;0.33;;;12.20;99.90;;;;;;5000731;28;20532;-83
2021/04/10 07:13:44;;;;;;;0.20;0.20;;;12.20;99.90;;;;;;4998683;28;20188;-83
2021/04/10 07:16:10;;;;;;;0.30;0.30;;;12.10;99.90;;;;;;4979319;28;20258;-83
2021/04/10 07:18:36;;;;;;;0.50;0.50;;;12.20;99.90;;;;;;4979621;28;20188;-83
2021/04/10 07:21:13;;;;;;;0.20;0.20;;;12.30;99.90;;;;;;4978844;28;20223;-83
2021/04/10 07:23:56;;;;;;;0.37;0.37;;;12.30;99.90;;;;;;4995755;28;20180;-83
2021/04/10 07:26:47;;;;;;;0.17;0.17;;;12.20;99.90;;;;;;4989442;28;20208;-83
2021/04/10 07:29:32;;;;;;;0.20;0.20;;;12.10;99.90;;;;;;4984806;28;20203;-83
2021/04/10 07:31:58;;;;;;;0.10;0.10;;;12.00;99.90;;;;;;4978979;28;20625;-82
2021/04/10 07:34:24;;;;;;;0.33;0.30;;;12.00;99.90;;;;;;4994041;28;20268;-83
2021/04/10 07:37:01;;;;;;;0.30;0.30;;;12.00;99.90;;;;;;4977540;28;20258;-83
2021/04/10 07:39:44;;;;;;;1.17;1.03;;;12.10;99.90;;;;;;4977705;28;20222;-83
2021/04/10 07:42:11;;;;;;;0.27;0.27;;;12.10;99.90;;;;;;4989513;28;20262;-83
2021/04/10 07:44:39;;;;;;;0.10;0.10;;;12.00;99.90;;;;;;4995788;28;20204;-83
2021/04/10 07:47:06;;;;;;;0.33;0.33;;;12.10;99.90;;;;;;4978177;28;20218;-83
2021/04/10 07:49:33;;;;;;;0.37;0.37;;;12.20;99.90;;;;;;4993417;28;20184;-84
2021/04/10 07:52:03;;;;;;;0.20;0.20;;;12.20;99.90;;;;;;4996125;28;20191;-83
2021/04/10 07:54:30;;;;;;;0.20;0.20;;;12.20;99.90;;;;;;4997152;28;20195;-83
2021/04/10 07:57:01;;;;;;;0.20;0.20;;;12.10;99.90;;;;;;4979337;28;20684;-83
2021/04/10 07:59:29;;;;;;;0.20;0.20;;;12.20;99.90;;;;;;4979464;28;20648;-83
2021/04/10 08:02:08;;;;;;;0.13;0.13;;;12.20;99.90;;;;;;4978725;28;20187;-84
2021/04/10 08:04:34;;;;;;;0.20;0.20;;;12.10;99.90;;;;;;4978706;28;20212;-83
2021/04/10 08:07:00;;;;;;;0.63;0.47;;;12.20;99.90;;;;;;4978871;28;20652;-83
2021/04/10 08:09:36;;;;;;;1.53;0.33;;;12.20;99.90;;;;;;4999316;28;20183;-81
2021/04/10 08:12:07;;;;;;;0.40;0.33;;;12.10;99.90;;;;;;4981405;28;20266;-84
2021/04/10 08:14:44;;;;;;;0.20;0.13;;;12.00;99.90;;;;;;4965292;28;20212;-84
2021/04/10 08:17:10;;;;;;;0.37;0.37;;;11.90;99.90;;;;;;4996131;28;20553;-83
2021/04/10 08:19:37;;;;;;;0.30;0.30;;;11.90;99.90;;;;;;4978686;28;20192;-83
2021/04/10 08:22:04;;;;;;;1.60;0.67;;;11.90;99.90;;;;;;4995607;28;20207;-87
2021/04/10 08:24:33;;;;;;;0.30;0.30;;;11.90;99.90;;;;;;4979155;28;20215;-83
2021/04/10 08:27:11;;;;;;;0.43;0.27;;;11.70;99.90;;;;;;4978079;28;20199;-83
2021/04/10 08:29:38;;;;;;;0.57;0.47;;;11.70;99.90;;;;;;4978644;28;20189;-82
2021/04/10 08:32:05;;;;;;;0.17;0.17;;;11.70;99.90;;;;;;4961579;28;20188;-83
2021/04/10 08:34:31;;;;;;;0.13;0.13;;;11.50;99.90;;;;;;4968912;28;20290;-83
2021/04/10 08:37:26;;;;;;;0.07;0.07;;;11.40;99.90;;;;;;4977226;28;20869;-83
2021/04/10 08:39:54;;;;;;;0.10;0.10;;;11.40;99.90;;;;;;4977733;28;20740;-83
2021/04/10 08:42:21;;;;;;;0.20;0.20;;;11.40;99.90;;;;;;4977018;28;20191;-83
2021/04/10 08:44:48;;;;;;;0.13;0.13;;;11.30;99.90;;;;;;4994882;28;20207;-83
2021/04/10 08:47:14;;;;;;;0.23;0.23;;;11.30;99.90;;;;;;4994973;28;20266;-84
2021/04/10 08:49:47;;;;;;;0.10;0.10;;;11.20;99.90;;;;;;4977085;28;20199;-84
2021/04/10 08:52:19;;;;;;;0.30;0.30;;;11.10;99.90;;;;;;4994158;28;20183;-83
2021/04/10 08:55:11;;;;;;;1.60;1.43;;;11.00;99.90;;;;;;4977548;28;20208;-84
2021/04/10 08:57:41;;;;;;;0.20;0.20;;;11.00;99.90;;;;;;4994562;28;20231;-86
2021/04/10 09:00:38;;;;;;;0.00;0.00;;;11.10;99.90;;;;;;4978079;28;20195;-85
2021/04/10 09:03:04;;;;;;;0.20;0.20;;;11.10;99.90;;;;;;4974628;28;20279;-84
2021/04/10 09:05:52;;;;;;;0.20;0.20;;;11.10;99.90;;;;;;4994144;28;20306;-83
2021/04/10 09:08:27;;;;;;;0.10;0.10;;;11.10;99.90;;;;;;4965869;28;20191;-83
2021/04/10 09:10:56;;;;;;;0.10;0.10;;;11.00;99.90;;;;;;4977560;28;20171;-84
2021/04/10 09:13:22;;;;;;;0.20;0.20;;;11.00;99.90;;;;;;4974269;28;20669;-83
2021/04/10 09:15:48;;;;;;;0.10;0.10;;;10.90;99.90;;;;;;4996139;28;20763;-82
2021/04/10 09:18:14;;;;;;;0.20;0.20;;;10.90;99.90;;;;;;4975531;28;20270;-83
2021/04/10 09:21:09;;;;;;;0.23;0.23;;;10.90;99.90;;;;;;4996065;28;20266;-84
2021/04/10 09:23:34;;;;;;;0.30;0.30;;;10.90;99.90;;;;;;4971105;28;20193;-82
2021/04/10 09:26:19;;;;;;;0.20;0.20;;;10.90;99.90;;;;;;4988508;28;20200;-83
2021/04/10 09:28:54;;;;;;;0.10;0.10;;;10.90;99.90;;;;;;4996319;28;20189;-83
2021/04/10 09:31:40;;;;;;;0.10;0.10;;;10.80;99.90;;;;;;4994631;28;20193;-82
2021/04/10 09:34:52;;;;;;;0.20;0.20;;;10.90;99.90;;;;;;4991001;28;20195;-82
2021/04/10 09:37:20;;;;;;;0.20;0.20;;;10.90;99.90;;;;;;4966453;28;20264;-84
2021/04/10 09:40:12;;;;;;;0.23;0.23;;;10.90;99.90;;;;;;4990877;28;20179;-84
2021/04/10 09:42:38;;;;;;;1.00;1.00;;;10.90;99.90;;;;;;4990969;28;20187;-85
2021/04/10 09:45:05;;;;;;;0.03;0.03;;;10.90;99.90;;;;;;4990180;28;20200;-86
2021/04/10 09:47:57;;;;;;;0.27;0.20;;;11.00;99.90;;;;;;4993052;28;20266;-84
2021/04/10 09:50:24;;;;;;;0.10;0.10;;;11.10;99.90;;;;;;4986786;28;20198;-87
2021/04/10 09:52:56;;;;;;;0.10;0.10;;;11.10;99.90;;;;;;4993485;28;20660;-83
2021/04/10 09:55:24;;;;;;;0.10;0.10;;;11.20;99.90;;;;;;4976373;28;20211;-83
2021/04/10 09:57:59;;;;;;;1.03;0.10;;;11.40;99.90;;;;;;4995549;28;20644;-85
2021/04/10 10:00:28;;;;;;;0.30;0.30;;;11.40;99.90;;;;;;4991284;28;20209;-84
2021/04/10 10:02:54;;;;;;;0.00;0.00;;;11.50;99.90;;;;;;4977504;28;20184;-83
2021/04/10 10:05:21;;;;;;;0.30;0.30;;;11.50;99.90;;;;;;4977356;28;20226;-81
2021/04/10 10:07:47;;;;;;;0.23;0.20;;;11.50;99.90;;;;;;4978027;28;20184;-82
2021/04/10 10:10:13;;;;;;;0.43;0.30;;;11.60;99.90;;;;;;4995750;28;20251;-80
2021/04/10 10:12:38;;;;;;;0.83;0.43;;;11.60;99.90;;;;;;4974203;28;20273;-80
2021/04/10 10:15:22;;;;;;;0.20;0.20;;;11.80;99.90;;;;;;4973524;28;20350;-80
2021/04/10 10:17:48;;;;;;;0.10;0.10;;;12.10;99.90;;;;;;4972214;28;20188;-81
2021/04/10 10:20:14;;;;;;;0.10;0.10;;;12.20;99.90;;;;;;4974809;28;20183;-80
2021/04/10 10:22:41;;;;;;;0.20;0.17;;;12.30;99.90;;;;;;4989822;28;20179;-81
2021/04/10 10:25:07;;;;;;;0.17;0.17;;;12.50;99.90;;;;;;4987440;28;20412;-80
2021/04/10 10:27:39;;;;;;;0.20;0.20;;;12.80;99.90;;;;;;4990895;28;20663;-79
2021/04/10 10:30:21;;;;;;;0.33;0.30;;;13.00;99.90;;;;;;4973764;28;20191;-80
2021/04/10 10:32:49;;;;;;;0.10;0.10;;;13.10;99.90;;;;;;4981287;28;20187;-81
2021/04/10 10:35:17;;;;;;;0.07;0.07;;;13.00;99.90;;;;;;4972373;28;20191;-81
2021/04/10 10:37:47;;;;;;;0.13;0.13;;;12.70;99.90;;;;;;4973320;28;20211;-81
2021/04/10 10:40:24;;;;;;;0.20;0.20;;;12.50;99.90;;;;;;4990603;28;20180;-81
2021/04/10 10:43:02;;;;;;;0.40;0.40;;;12.40;99.90;;;;;;4972486;28;20524;-79
2021/04/10 10:45:49;;;;;;;0.17;0.17;;;12.20;99.90;;;;;;4968481;28;20203;-80
2021/04/10 10:48:19;;;;;;;0.10;0.10;;;12.20;99.90;;;;;;4989798;28;20667;-81
2021/04/10 10:50:46;;;;;;;0.10;0.10;;;12.30;99.90;;;;;;4971290;28;20183;-81
2021/04/10 10:53:16;;;;;;;0.37;0.37;;;12.50;99.90;;;;;;4971675;28;20188;-81
2021/04/10 10:56:09;;;;;;;0.20;0.20;;;12.50;99.90;;;;;;4988647;28;20708;-81
2021/04/10 10:58:47;;;;;;;0.10;0.10;;;12.50;99.90;;;;;;4986398;28;20180;-80
2021/04/10 11:01:18;;;;;;;0.40;0.20;;;12.60;99.90;;;;;;4971487;28;20183;-80
2021/04/10 11:04:10;;;;;;;0.10;0.10;;;12.70;99.90;;;;;;4970606;28;20247;-81
2021/04/10 11:06:39;;;;;;;0.20;0.20;;;12.70;99.90;;;;;;4988116;28;20201;-81
2021/04/10 11:09:07;;;;;;;0.10;0.10;;;12.70;99.90;;;;;;4990382;28;20254;-80
2021/04/10 11:11:38;;;;;;;0.20;0.20;;;12.70;99.90;;;;;;4993371;28;20187;-82
2021/04/10 11:14:05;;;;;;;0.37;0.20;;;12.80;99.90;;;;;;4972752;28;20199;-82
2021/04/10 11:16:31;;;;;;;0.10;0.10;;;12.80;99.90;;;;;;4972077;28;20218;-81
2021/04/10 11:18:58;;;;;;;0.60;0.60;;;12.80;99.90;;;;;;4990388;28;20207;-82
2021/04/10 11:21:30;;;;;;;0.20;0.20;;;12.80;99.90;;;;;;4971935;28;20220;-82
2021/04/10 11:23:58;;;;;;;0.20;0.20;;;12.80;99.90;;;;;;4989337;28;20171;-82
2021/04/10 11:26:40;;;;;;;0.47;0.37;;;12.80;99.90;;;;;;4972303;28;20208;-82
2021/04/10 11:29:15;;;;;;;0.13;0.13;;;12.80;99.90;;;;;;4972924;28;20184;-82
2021/04/10 11:31:41;;;;;;;0.40;0.30;;;12.70;99.90;;;;;;4988228;28;20202;-80
2021/04/10 11:34:29;;;;;;;3.50;0.20;;;12.60;99.90;;;;;;4987833;28;20188;-81
2021/04/10 11:36:55;;;;;;;0.10;0.10;;;12.40;99.90;;;;;;4971796;28;20203;-82
2021/04/10 11:39:21;;;;;;;0.10;0.10;;;12.40;99.90;;;;;;4990391;28;20234;-82
2021/04/10 11:41:47;;;;;;;0.10;0.10;;;12.30;99.90;;;;;;4990862;28;20188;-82
2021/04/10 11:44:13;;;;;;;0.10;0.10;;;12.30;99.90;;;;;;4974972;28;20171;-81
2021/04/10 11:46:40;;;;;;;0.20;0.20;;;12.40;99.90;;;;;;4995914;28;20188;-81
2021/04/10 11:49:06;;;;;;;0.13;0.13;;;12.40;99.90;;;;;;4975393;28;20311;-79
2021/04/10 11:51:31;;;;;;;0.20;0.20;;;12.50;99.90;;;;;;4977160;28;20247;-82
2021/04/10 11:53:57;;;;;;;0.63;0.63;;;12.50;99.90;;;;;;4980956;28;20195;-82
2021/04/10 11:56:30;;;;;;;0.60;0.60;;;12.40;99.90;;;;;;4978105;28;20219;-82
2021/04/10 11:59:03;;;;;;;0.50;0.50;;;12.50;99.90;;;;;;4977497;28;20668;-82
2021/04/10 12:01:29;;;;;;;0.20;0.20;;;12.70;99.90;;;;;;4994484;28;20176;-82
2021/04/10 12:03:59;;;;;;;0.10;0.10;;;12.70;99.90;;;;;;4995296;28;20181;-82
2021/04/10 12:06:38;;;;;;;0.30;0.30;;;12.70;99.90;;;;;;4995363;28;20623;-81
2021/04/10 12:09:10;;;;;;;0.30;0.10;;;12.70;99.90;;;;;;4979456;28;20184;-82
2021/04/10 12:11:37;;;;;;;0.10;0.10;;;12.80;99.90;;;;;;4999535;28;20287;-82
2021/04/10 12:14:07;;;;;;;0.10;0.10;;;12.80;99.90;;;;;;4977605;28;20559;-81
2021/04/10 12:16:40;;;;;;;0.20;0.20;;;12.80;99.90;;;;;;4994977;28;20210;-81
2021/04/10 12:19:07;;;;;;;0.10;0.10;;;12.70;99.90;;;;;;4974854;28;20238;-82
2021/04/10 12:21:33;;;;;;;3.23;0.53;;;12.70;99.90;;;;;;4974574;28;20192;-81
2021/04/10 12:23:59;;;;;;;0.20;0.10;;;12.70;99.90;;;;;;4973431;28;20184;-82
2021/04/10 12:26:24;;;;;;;0.10;0.10;;;12.70;99.90;;;;;;4976873;28;20214;-83
2021/04/10 12:28:51;;;;;;;0.20;0.20;;;12.70;99.90;;;;;;4991946;28;20188;-81
2021/04/10 12:31:16;;;;;;;0.40;0.40;;;12.70;99.90;;;;;;4992317;28;21302;-80
2021/04/10 12:33:42;;;;;;;0.30;0.10;;;12.80;99.90;;;;;;4969641;28;20181;-80
2021/04/10 12:36:08;;;;;;;0.10;0.10;;;12.70;99.90;;;;;;4973476;28;20721;-80
2021/04/10 12:38:35;;;;;;;0.23;0.23;;;12.70;99.90;;;;;;4983141;28;20184;-80
2021/04/10 12:41:01;;;;;;;0.20;0.10;;;12.80;99.90;;;;;;4984391;28;20192;-80
2021/04/10 12:43:26;;;;;;;2.60;2.40;;;12.70;99.90;;;;;;4992334;28;20266;-80
2021/04/10 12:45:52;;;;;;;0.27;0.27;;;12.50;99.90;;;;;;4976903;28;20773;-80
2021/04/10 12:48:18;;;;;;;0.20;0.20;;;12.50;99.90;;;;;;4976975;28;20193;-81
2021/04/10 12:50:43;;;;;;;0.47;0.37;;;12.40;99.90;;;;;;4974229;28;20189;-81
2021/04/10 12:53:09;;;;;;;0.20;0.10;;;12.40;99.90;;;;;;4989771;28;20212;-80
2021/04/10 12:55:35;;;;;;;0.10;0.10;;;12.40;99.90;;;;;;4976159;28;20303;-80
2021/04/10 12:58:00;;;;;;;0.27;0.27;;;12.50;99.90;;;;;;4976765;28;20310;-79
2021/04/10 13:00:27;;;;;;;0.30;0.30;;;12.50;99.90;;;;;;4993203;28;20252;-80